sensor_id;sensor_type;location;lat;lon;timestamp;pressure;altitude;pressure_sealevel;temperature;humidity
51452;BME280;37521;52.020;-1.740;2024-03-23T00:54:32;99774.03;;;1.63;100.00
51452;BME280;37521;52.020;-1.740;2024-03-23T00:57:00;99770.63;;;1.61;100.00
51452;BME280;37521;52.020;-1.740;2024-03-23T00:59:26;99768.03;;;1.58;100.00
51452;BME280;37521;52.020;-1.740;2024-03-23T01:01:54;99769.78;;;1.58;100.00
51452;BME280;37521;52.020;-1.740;2024-03-23T01:04:21;99768.88;;;1.60;100.00
51452;BME280;37521;52.020;-1.740;2024-03-23T01:06:48;99757.50;;;1.66;100.00
51452;BME280;37521;52.020;-1.740;2024-03-23T01:09:14;99752.38;;;1.63;100.00
51452;BME280;37521;52.020;-1.740;2024-03-23T01:11:43;99748.03;;;1.63;100.00
51452;BME280;37521;52.020;-1.740;2024-03-23T01:14:09;99737.59;;;1.65;100.00
51452;BME280;37521;52.020;-1.740;2024-03-23T01:16:37;99747.97;;;1.67;100.00
51452;BME280;37521;52.020;-1.740;2024-03-23T01:19:03;99743.59;;;1.70;100.00
51452;BME280;37521;52.020;-1.740;2024-03-23T01:21:31;99738.41;;;1.69;100.00
51452;BME280;37521;52.020;-1.740;2024-03-23T01:23:58;99747.88;;;1.74;100.00
51452;BME280;37521;52.020;-1.740;2024-03-23T01:26:25;99741.69;;;1.81;100.00
51452;BME280;37521;52.020;-1.740;2024-03-23T01:28:53;99739.06;;;1.83;100.00
51452;BME280;37521;52.020;-1.740;2024-03-23T01:31:20;99736.50;;;1.80;100.00
51452;BME280;37521;52.020;-1.740;2024-03-23T01:33:47;99735.66;;;1.78;100.00
51452;BME280;37521;52.020;-1.740;2024-03-23T01:36:14;99737.44;;;1.76;100.00
51452;BME280;37521;52.020;-1.740;2024-03-23T01:38:40;99734.84;;;1.73;100.00
51452;BME280;37521;52.020;-1.740;2024-03-23T01:41:08;99717.59;;;1.69;100.00
51452;BME280;37521;52.020;-1.740;2024-03-23T01:43:34;99727.16;;;1.65;100.00
51452;BME280;37521;52.020;-1.740;2024-03-23T01:46:03;99724.47;;;1.71;100.00
51452;BME280;37521;52.020;-1.740;2024-03-23T01:48:30;99719.25;;;1.74;100.00
51452;BME280;37521;52.020;-1.740;2024-03-23T01:50:57;99724.31;;;1.80;100.00
51452;BME280;37521;52.020;-1.740;2024-03-23T01:53:24;99716.50;;;1.83;100.00
51452;BME280;37521;52.020;-1.740;2024-03-23T01:55:52;99725.06;;;1.90;100.00
51452;BME280;37521;52.020;-1.740;2024-03-23T01:58:19;99716.38;;;1.91;100.00
51452;BME280;37521;52.020;-1.740;2024-03-23T02:00:46;99722.41;;;1.95;100.00
51452;BME280;37521;52.020;-1.740;2024-03-23T02:03:24;99724.09;;;1.97;100.00
51452;BME280;37521;52.020;-1.740;2024-03-23T02:05:52;99709.28;;;2.01;100.00
51452;BME280;37521;52.020;-1.740;2024-03-23T02:08:20;99714.50;;;1.99;100.00
51452;BME280;37521;52.020;-1.740;2024-03-23T02:10:48;99707.63;;;1.95;100.00
51452;BME280;37521;52.020;-1.740;2024-03-23T02:13:15;99701.63;;;1.90;100.00
51452;BME280;37521;52.020;-1.740;2024-03-23T02:15:42;99698.22;;;1.88;100.00
51452;BME280;37521;52.020;-1.740;2024-03-23T02:18:08;99700.75;;;1.91;100.00
51452;BME280;37521;52.020;-1.740;2024-03-23T02:20:38;99702.47;;;1.92;100.00
51452;BME280;37521;52.020;-1.740;2024-03-23T02:23:06;99701.59;;;1.91;100.00
51452;BME280;37521;52.020;-1.740;2024-03-23T02:25:33;99710.34;;;1.89;100.00
51452;BME280;37521;52.020;-1.740;2024-03-23T02:27:59;99698.28;;;1.83;100.00
51452;BME280;37521;52.020;-1.740;2024-03-23T02:30:29;99700.00;;;1.83;100.00
51452;BME280;37521;52.020;-1.740;2024-03-23T02:32:56;99709.63;;;1.78;100.00
51452;BME280;37521;52.020;-1.740;2024-03-23T02:35:23;99702.72;;;1.77;100.00
51452;BME280;37521;52.020;-1.740;2024-03-23T02:37:50;99708.84;;;1.73;100.00
51452;BME280;37521;52.020;-1.740;2024-03-23T02:40:20;99699.28;;;1.75;100.00
51452;BME280;37521;52.020;-1.740;2024-03-23T02:42:46;99693.16;;;1.77;100.00
51452;BME280;37521;52.020;-1.740;2024-03-23T02:45:14;99694.00;;;1.78;100.00
51452;BME280;37521;52.020;-1.740;2024-03-23T02:47:40;99690.59;;;1.76;100.00
51452;BME280;37521;52.020;-1.740;2024-03-23T02:50:08;99690.63;;;1.73;100.00
51452;BME280;37521;52.020;-1.740;2024-03-23T02:52:35;99688.06;;;1.70;100.00
51452;BME280;37521;52.020;-1.740;2024-03-23T02:55:03;99695.00;;;1.71;100.00
51452;BME280;37521;52.020;-1.740;2024-03-23T02:57:31;99695.81;;;1.73;100.00
51452;BME280;37521;52.020;-1.740;2024-03-23T02:59:58;99683.72;;;1.70;100.00
51452;BME280;37521;52.020;-1.740;2024-03-23T03:02:24;99693.31;;;1.68;100.00
51452;BME280;37521;52.020;-1.740;2024-03-23T03:04:52;99694.16;;;1.67;100.00
51452;BME280;37521;52.020;-1.740;2024-03-23T03:07:18;99694.16;;;1.69;100.00
51452;BME280;37521;52.020;-1.740;2024-03-23T03:09:46;99688.03;;;1.71;100.00
51452;BME280;37521;52.020;-1.740;2024-03-23T03:12:12;99685.41;;;1.73;100.00
51452;BME280;37521;52.020;-1.740;2024-03-23T03:14:41;99689.78;;;1.71;100.00
51452;BME280;37521;52.020;-1.740;2024-03-23T03:17:08;99690.69;;;1.70;100.00
51452;BME280;37521;52.020;-1.740;2024-03-23T03:19:35;99687.19;;;1.71;100.00
51452;BME280;37521;52.020;-1.740;2024-03-23T03:22:02;99688.03;;;1.71;100.00
51452;BME280;37521;52.020;-1.740;2024-03-23T03:24:30;99680.19;;;1.73;100.00
51452;BME280;37521;52.020;-1.740;2024-03-23T03:26:56;99679.44;;;1.66;100.00
51452;BME280;37521;52.020;-1.740;2024-03-23T03:29:24;99678.66;;;1.62;100.00
51452;BME280;37521;52.020;-1.740;2024-03-23T03:31:52;99671.75;;;1.58;100.00
51452;BME280;37521;52.020;-1.740;2024-03-23T03:34:19;99673.56;;;1.53;100.00
51452;BME280;37521;52.020;-1.740;2024-03-23T03:36:46;99677.88;;;1.56;100.00
51452;BME280;37521;52.020;-1.740;2024-03-23T03:39:13;99673.53;;;1.56;100.00
51452;BME280;37521;52.020;-1.740;2024-03-23T03:41:40;99672.72;;;1.53;100.00
51452;BME280;37521;52.020;-1.740;2024-03-23T03:44:07;99677.97;;;1.50;100.00
51452;BME280;37521;52.020;-1.740;2024-03-23T03:46:34;99681.41;;;1.52;100.00
51452;BME280;37521;52.020;-1.740;2024-03-23T03:49:03;99663.22;;;1.50;100.00
51452;BME280;37521;52.020;-1.740;2024-03-23T03:51:29;99659.78;;;1.48;100.00
51452;BME280;37521;52.020;-1.740;2024-03-23T03:53:57;99661.53;;;1.46;100.00
51452;BME280;37521;52.020;-1.740;2024-03-23T03:56:23;99656.38;;;1.43;100.00
51452;BME280;37521;52.020;-1.740;2024-03-23T03:58:50;99659.91;;;1.39;100.00
51452;BME280;37521;52.020;-1.740;2024-03-23T04:01:17;99662.59;;;1.34;100.00
51452;BME280;37521;52.020;-1.740;2024-03-23T04:03:45;99659.09;;;1.35;100.00
51452;BME280;37521;52.020;-1.740;2024-03-23T04:06:18;99652.97;;;1.40;100.00
51452;BME280;37521;52.020;-1.740;2024-03-23T04:08:46;99653.00;;;1.38;100.00
51452;BME280;37521;52.020;-1.740;2024-03-23T04:11:12;99635.66;;;1.37;100.00
51452;BME280;37521;52.020;-1.740;2024-03-23T04:13:40;99644.34;;;1.36;100.00
51452;BME280;37521;52.020;-1.740;2024-03-23T04:16:07;99633.16;;;1.31;100.00
51452;BME280;37521;52.020;-1.740;2024-03-23T04:18:36;99644.44;;;1.30;100.00
51452;BME280;37521;52.020;-1.740;2024-03-23T04:21:02;99641.91;;;1.25;100.00
51452;BME280;37521;52.020;-1.740;2024-03-23T04:23:31;99641.00;;;1.28;100.00
51452;BME280;37521;52.020;-1.740;2024-03-23T04:26:03;99638.38;;;1.29;100.00
51452;BME280;37521;52.020;-1.740;2024-03-23T04:28:31;99628.84;;;1.30;100.00
51452;BME280;37521;52.020;-1.740;2024-03-23T04:30:57;99620.22;;;1.28;100.00
51452;BME280;37521;52.020;-1.740;2024-03-23T04:33:24;99631.38;;;1.33;100.00
51452;BME280;37521;52.020;-1.740;2024-03-23T04:35:51;99624.38;;;1.38;100.00
51452;BME280;37521;52.020;-1.740;2024-03-23T04:38:18;99613.91;;;1.43;100.00
51452;BME280;37521;52.020;-1.740;2024-03-23T04:40:54;99611.25;;;1.47;100.00
51452;BME280;37521;52.020;-1.740;2024-03-23T04:43:21;99619.88;;;1.49;100.00
51452;BME280;37521;52.020;-1.740;2024-03-23T04:45:48;99612.03;;;1.51;100.00
51452;BME280;37521;52.020;-1.740;2024-03-23T04:48:17;99608.63;;;1.49;100.00
51452;BME280;37521;52.020;-1.740;2024-03-23T04:50:45;99619.06;;;1.46;100.00
51452;BME280;37521;52.020;-1.740;2024-03-23T04:53:13;99637.34;;;1.41;100.00
51452;BME280;37521;52.020;-1.740;2024-03-23T04:55:40;99633.00;;;1.42;100.00
51452;BME280;37521;52.020;-1.740;2024-03-23T04:58:08;99633.88;;;1.42;100.00
51452;BME280;37521;52.020;-1.740;2024-03-23T05:00:35;99617.38;;;1.43;100.00
51452;BME280;37521;52.020;-1.740;2024-03-23T05:03:02;99624.19;;;1.50;100.00
51452;BME280;37521;52.020;-1.740;2024-03-23T05:05:30;99621.53;;;1.53;100.00
51452;BME280;37521;52.020;-1.740;2024-03-23T05:07:56;99614.59;;;1.52;100.00
51452;BME280;37521;52.020;-1.740;2024-03-23T05:10:24;99606.00;;;1.49;100.00
51452;BME280;37521;52.020;-1.740;2024-03-23T05:12:50;99604.28;;;1.46;100.00
51452;BME280;37521;52.020;-1.740;2024-03-23T05:15:19;99612.88;;;1.53;100.00
51452;BME280;37521;52.020;-1.740;2024-03-23T05:17:45;99599.81;;;1.56;100.00
51452;BME280;37521;52.020;-1.740;2024-03-23T05:20:12;99601.47;;;1.60;100.00
51452;BME280;37521;52.020;-1.740;2024-03-23T05:22:40;99589.34;;;1.59;100.00
51452;BME280;37521;52.020;-1.740;2024-03-23T05:25:08;99600.63;;;1.59;100.00
51452;BME280;37521;52.020;-1.740;2024-03-23T05:27:35;99593.69;;;1.58;100.00
51452;BME280;37521;52.020;-1.740;2024-03-23T05:30:04;99598.91;;;1.58;100.00
51452;BME280;37521;52.020;-1.740;2024-03-23T05:32:33;99596.31;;;1.58;100.00
51452;BME280;37521;52.020;-1.740;2024-03-23T05:35:00;99598.00;;;1.59;100.00
51452;BME280;37521;52.020;-1.740;2024-03-23T05:37:27;99595.38;;;1.62;100.00
51452;BME280;37521;52.020;-1.740;2024-03-23T05:39:56;99593.66;;;1.61;100.00
51452;BME280;37521;52.020;-1.740;2024-03-23T05:42:23;99597.13;;;1.60;100.00
51452;BME280;37521;52.020;-1.740;2024-03-23T05:44:50;99596.25;;;1.60;100.00
51452;BME280;37521;52.020;-1.740;2024-03-23T05:47:17;99603.25;;;1.58;100.00
51452;BME280;37521;52.020;-1.740;2024-03-23T05:49:45;99602.38;;;1.57;100.00
51452;BME280;37521;52.020;-1.740;2024-03-23T05:52:13;99607.66;;;1.54;100.00
51452;BME280;37521;52.020;-1.740;2024-03-23T05:54:41;99605.97;;;1.50;100.00
51452;BME280;37521;52.020;-1.740;2024-03-23T05:57:09;99604.25;;;1.49;100.00
51452;BME280;37521;52.020;-1.740;2024-03-23T05:59:38;99610.28;;;1.51;100.00
51452;BME280;37521;52.020;-1.740;2024-03-23T06:02:05;99609.41;;;1.52;100.00
51452;BME280;37521;52.020;-1.740;2024-03-23T06:04:33;99599.91;;;1.50;100.00
51452;BME280;37521;52.020;-1.740;2024-03-23T06:07:02;99607.69;;;1.51;100.00
51452;BME280;37521;52.020;-1.740;2024-03-23T06:09:29;99605.91;;;1.53;100.00
51452;BME280;37521;52.020;-1.740;2024-03-23T06:11:57;99609.38;;;1.55;100.00
51452;BME280;37521;52.020;-1.740;2024-03-23T06:14:24;99604.16;;;1.55;100.00
51452;BME280;37521;52.020;-1.740;2024-03-23T06:16:51;99602.38;;;1.57;100.00
51452;BME280;37521;52.020;-1.740;2024-03-23T06:19:18;99607.53;;;1.60;100.00
51452;BME280;37521;52.020;-1.740;2024-03-23T06:21:45;99596.25;;;1.60;100.00
51452;BME280;37521;52.020;-1.740;2024-03-23T06:24:13;99593.69;;;1.58;100.00
51452;BME280;37521;52.020;-1.740;2024-03-23T06:26:40;99600.59;;;1.62;100.00
51452;BME280;37521;52.020;-1.740;2024-03-23T06:29:08;99602.19;;;1.70;100.00
51452;BME280;37521;52.020;-1.740;2024-03-23T06:31:34;99605.63;;;1.72;100.00
51452;BME280;37521;52.020;-1.740;2024-03-23T06:34:01;99597.69;;;1.79;100.00
51452;BME280;37521;52.020;-1.740;2024-03-23T06:36:28;99601.88;;;1.88;100.00
51452;BME280;37521;52.020;-1.740;2024-03-23T06:38:56;99598.31;;;1.92;100.00
51452;BME280;37521;52.020;-1.740;2024-03-23T06:41:24;99592.22;;;1.93;100.00
51452;BME280;37521;52.020;-1.740;2024-03-23T06:43:52;99587.91;;;1.92;100.00
51452;BME280;37521;52.020;-1.740;2024-03-23T06:46:18;99594.94;;;1.88;100.00
51452;BME280;37521;52.020;-1.740;2024-03-23T06:48:45;99594.00;;;1.91;100.00
51452;BME280;37521;52.020;-1.740;2024-03-23T06:51:12;99587.06;;;1.91;100.00
51452;BME280;37521;52.020;-1.740;2024-03-23T06:53:39;99587.88;;;1.95;100.00
51452;BME280;37521;52.020;-1.740;2024-03-23T06:56:06;99579.00;;;2.05;100.00
51452;BME280;37521;52.020;-1.740;2024-03-23T06:58:35;99591.00;;;2.12;100.00
51452;BME280;37521;52.020;-1.740;2024-03-23T07:01:01;99573.66;;;2.11;100.00
51452;BME280;37521;52.020;-1.740;2024-03-23T07:03:29;99576.31;;;2.10;100.00
51452;BME280;37521;52.020;-1.740;2024-03-23T07:05:57;99582.25;;;2.16;100.00
51452;BME280;37521;52.020;-1.740;2024-03-23T07:08:25;99572.38;;;2.32;100.00
51452;BME280;37521;52.020;-1.740;2024-03-23T07:10:51;99581.72;;;2.44;100.00
51452;BME280;37521;52.020;-1.740;2024-03-23T07:13:18;99568.66;;;2.45;100.00
51452;BME280;37521;52.020;-1.740;2024-03-23T07:15:52;99570.50;;;2.39;100.00
51452;BME280;37521;52.020;-1.740;2024-03-23T07:18:21;99570.59;;;2.36;100.00
51452;BME280;37521;52.020;-1.740;2024-03-23T07:20:52;99573.13;;;2.39;100.00
51452;BME280;37521;52.020;-1.740;2024-03-23T07:23:20;99567.88;;;2.42;100.00
51452;BME280;37521;52.020;-1.740;2024-03-23T07:25:56;99570.44;;;2.43;100.00
51452;BME280;37521;52.020;-1.740;2024-03-23T07:28:23;99573.81;;;2.47;100.00
51452;BME280;37521;52.020;-1.740;2024-03-23T07:31:02;99571.16;;;2.50;100.00
51452;BME280;37521;52.020;-1.740;2024-03-23T07:33:32;99562.38;;;2.56;100.00
51452;BME280;37521;52.020;-1.740;2024-03-23T07:35:58;99563.94;;;2.63;100.00
51452;BME280;37521;52.020;-1.740;2024-03-23T07:38:27;99565.59;;;2.67;100.00
51452;BME280;37521;52.020;-1.740;2024-03-23T07:41:03;99562.94;;;2.70;100.00
51452;BME280;37521;52.020;-1.740;2024-03-23T07:43:30;99558.50;;;2.73;100.00
51452;BME280;37521;52.020;-1.740;2024-03-23T07:45:56;99559.44;;;2.71;100.00
51452;BME280;37521;52.020;-1.740;2024-03-23T07:48:25;99559.44;;;2.71;100.00
51452;BME280;37521;52.020;-1.740;2024-03-23T07:50:59;99553.28;;;2.73;100.00
51452;BME280;37521;52.020;-1.740;2024-03-23T07:53:27;99561.81;;;2.80;100.00
51452;BME280;37521;52.020;-1.740;2024-03-23T07:55:55;99544.38;;;2.84;100.00
51452;BME280;37521;52.020;-1.740;2024-03-23T07:58:23;99561.69;;;2.88;100.00
51452;BME280;37521;52.020;-1.740;2024-03-23T08:00:49;99552.84;;;2.93;100.00
51452;BME280;37521;52.020;-1.740;2024-03-23T08:03:17;99547.47;;;3.01;100.00
51452;BME280;37521;52.020;-1.740;2024-03-23T08:05:45;99542.09;;;3.07;100.00
51452;BME280;37521;52.020;-1.740;2024-03-23T08:08:12;99547.06;;;3.18;100.00
51452;BME280;37521;52.020;-1.740;2024-03-23T08:10:47;99547.59;;;3.32;100.00
51452;BME280;37521;52.020;-1.740;2024-03-23T08:13:15;99537.59;;;3.49;100.00
51452;BME280;37521;52.020;-1.740;2024-03-23T08:15:42;99534.59;;;3.65;100.00
51452;BME280;37521;52.020;-1.740;2024-03-23T08:18:09;99537.78;;;3.76;100.00
51452;BME280;37521;52.020;-1.740;2024-03-23T08:20:36;99545.31;;;3.87;100.00
51452;BME280;37521;52.020;-1.740;2024-03-23T08:23:06;99545.00;;;3.99;100.00
51452;BME280;37521;52.020;-1.740;2024-03-23T08:25:32;99531.78;;;4.05;100.00
51452;BME280;37521;52.020;-1.740;2024-03-23T08:28:00;99545.06;;;3.97;100.00
51452;BME280;37521;52.020;-1.740;2024-03-23T08:30:28;99539.78;;;3.99;100.00
51452;BME280;37521;52.020;-1.740;2024-03-23T08:32:55;99541.38;;;4.04;100.00
51452;BME280;37521;52.020;-1.740;2024-03-23T08:35:22;99535.94;;;4.12;100.00
51452;BME280;37521;52.020;-1.740;2024-03-23T08:37:49;99537.03;;;4.34;100.00
51452;BME280;37521;52.020;-1.740;2024-03-23T08:40:17;99543.38;;;4.57;100.00
51452;BME280;37521;52.020;-1.740;2024-03-23T08:42:44;99537.41;;;4.81;100.00
51452;BME280;37521;52.020;-1.740;2024-03-23T08:45:11;99531.66;;;4.98;100.00
51452;BME280;37521;52.020;-1.740;2024-03-23T08:47:38;99520.16;;;5.04;100.00
51452;BME280;37521;52.020;-1.740;2024-03-23T08:50:05;99514.72;;;5.10;100.00
51452;BME280;37521;52.020;-1.740;2024-03-23T08:52:33;99513.88;;;5.09;100.00
51452;BME280;37521;52.020;-1.740;2024-03-23T08:54:59;99514.16;;;5.00;100.00
51452;BME280;37521;52.020;-1.740;2024-03-23T08:57:28;99506.72;;;4.86;100.00
51452;BME280;37521;52.020;-1.740;2024-03-23T08:59:55;99511.97;;;4.86;100.00
51452;BME280;37521;52.020;-1.740;2024-03-23T09:02:22;99508.66;;;5.08;100.00
51452;BME280;37521;52.020;-1.740;2024-03-23T09:04:48;99513.31;;;5.26;100.00
51452;BME280;37521;52.020;-1.740;2024-03-23T09:07:16;99496.44;;;5.35;100.00
51452;BME280;37521;52.020;-1.740;2024-03-23T09:09:42;99497.00;;;5.18;100.00
51452;BME280;37521;52.020;-1.740;2024-03-23T09:12:10;99505.06;;;5.12;100.00
51452;BME280;37521;52.020;-1.740;2024-03-23T09:14:38;99502.34;;;5.15;100.00
51452;BME280;37521;52.020;-1.740;2024-03-23T09:17:05;99500.22;;;5.26;100.00
51452;BME280;37521;52.020;-1.740;2024-03-23T09:19:32;99505.72;;;5.18;100.00
51452;BME280;37521;52.020;-1.740;2024-03-23T09:22:00;99506.75;;;5.13;100.00
51452;BME280;37521;52.020;-1.740;2024-03-23T09:24:26;99503.72;;;4.99;100.00
51452;BME280;37521;52.020;-1.740;2024-03-23T09:26:53;99496.25;;;4.86;100.00
51452;BME280;37521;52.020;-1.740;2024-03-23T09:29:20;99488.78;;;4.74;100.00
51452;BME280;37521;52.020;-1.740;2024-03-23T09:31:49;99489.00;;;4.68;100.00
51452;BME280;37521;52.020;-1.740;2024-03-23T09:34:15;99489.19;;;4.62;100.00
51452;BME280;37521;52.020;-1.740;2024-03-23T09:36:43;99494.63;;;4.54;100.00
51452;BME280;37521;52.020;-1.740;2024-03-23T09:39:09;99486.91;;;4.51;100.00
51452;BME280;37521;52.020;-1.740;2024-03-23T09:41:37;99485.84;;;4.57;100.00
51452;BME280;37521;52.020;-1.740;2024-03-23T09:44:05;99487.19;;;4.70;100.00
51452;BME280;37521;52.020;-1.740;2024-03-23T09:46:32;99475.50;;;4.82;100.00
51452;BME280;37521;52.020;-1.740;2024-03-23T09:49:03;99469.66;;;5.27;100.00
51452;BME280;37521;52.020;-1.740;2024-03-23T09:51:32;99464.75;;;5.69;100.00
51452;BME280;37521;52.020;-1.740;2024-03-23T09:53:59;99462.72;;;5.77;100.00
51452;BME280;37521;52.020;-1.740;2024-03-23T09:56:26;99458.75;;;5.90;100.00
51452;BME280;37521;52.020;-1.740;2024-03-23T09:59:00;99447.41;;;5.90;100.00
51452;BME280;37521;52.020;-1.740;2024-03-23T10:01:29;99444.53;;;5.97;100.00
51452;BME280;37521;52.020;-1.740;2024-03-23T10:03:56;99453.41;;;5.93;100.00
51452;BME280;37521;52.020;-1.740;2024-03-23T10:06:25;99464.97;;;5.63;100.00
51452;BME280;37521;52.020;-1.740;2024-03-23T10:08:52;99489.09;;;4.93;100.00
51452;BME280;37521;52.020;-1.740;2024-03-23T10:11:20;99489.06;;;4.06;100.00
51452;BME280;37521;52.020;-1.740;2024-03-23T10:13:47;99478.03;;;3.31;100.00
51452;BME280;37521;52.020;-1.740;2024-03-23T10:16:21;99469.91;;;3.09;100.00
51452;BME280;37521;52.020;-1.740;2024-03-23T10:18:48;99468.91;;;3.13;100.00
51452;BME280;37521;52.020;-1.740;2024-03-23T10:21:16;99458.25;;;3.22;100.00
51452;BME280;37521;52.020;-1.740;2024-03-23T10:23:45;99454.47;;;3.34;100.00
51452;BME280;37521;52.020;-1.740;2024-03-23T10:26:13;99455.09;;;3.44;100.00
51452;BME280;37521;52.020;-1.740;2024-03-23T10:28:51;99451.22;;;3.59;100.00
51452;BME280;37521;52.020;-1.740;2024-03-23T10:31:20;99450.69;;;3.78;100.00
51452;BME280;37521;52.020;-1.740;2024-03-23T10:33:47;99443.31;;;3.93;100.00
51452;BME280;37521;52.020;-1.740;2024-03-23T10:36:15;99447.09;;;4.12;100.00
51452;BME280;37521;52.020;-1.740;2024-03-23T10:38:44;99439.91;;;4.20;100.00
51452;BME280;37521;52.020;-1.740;2024-03-23T10:41:12;99440.66;;;4.24;100.00
51452;BME280;37521;52.020;-1.740;2024-03-23T10:43:38;99435.41;;;4.25;100.00
51452;BME280;37521;52.020;-1.740;2024-03-23T10:46:06;99429.69;;;4.41;100.00
51452;BME280;37521;52.020;-1.740;2024-03-23T10:48:33;99422.31;;;4.55;100.00
51452;BME280;37521;52.020;-1.740;2024-03-23T10:51:00;99422.00;;;4.64;100.00
51452;BME280;37521;52.020;-1.740;2024-03-23T10:53:28;99421.50;;;4.79;100.00
51452;BME280;37521;52.020;-1.740;2024-03-23T10:55:57;99418.28;;;4.71;100.00
51452;BME280;37521;52.020;-1.740;2024-03-23T10:58:27;99431.88;;;4.56;100.00
51452;BME280;37521;52.020;-1.740;2024-03-23T11:00:57;99427.47;;;4.28;100.00
51452;BME280;37521;52.020;-1.740;2024-03-23T11:03:34;99421.25;;;4.03;100.00
51452;BME280;37521;52.020;-1.740;2024-03-23T11:06:03;99413.66;;;3.95;100.00
51452;BME280;37521;52.020;-1.740;2024-03-23T11:08:31;99412.53;;;4.04;100.00
51452;BME280;37521;52.020;-1.740;2024-03-23T11:11:18;99403.53;;;4.13;100.00
51452;BME280;37521;52.020;-1.740;2024-03-23T11:13:47;99403.38;;;4.19;100.00
51452;BME280;37521;52.020;-1.740;2024-03-23T11:16:22;99399.34;;;4.36;100.00
51452;BME280;37521;52.020;-1.740;2024-03-23T11:18:49;99397.34;;;4.45;100.00
51452;BME280;37521;52.020;-1.740;2024-03-23T11:21:53;99403.28;;;4.50;100.00
51452;BME280;37521;52.020;-1.740;2024-03-23T11:24:21;99408.28;;;4.29;100.00
51452;BME280;37521;52.020;-1.740;2024-03-23T11:26:50;99430.94;;;3.99;100.00
51452;BME280;37521;52.020;-1.740;2024-03-23T11:29:17;99451.16;;;3.60;100.00
51452;BME280;37521;52.020;-1.740;2024-03-23T11:31:48;99456.44;;;2.53;100.00
51452;BME280;37521;52.020;-1.740;2024-03-23T11:34:15;99442.78;;;1.58;100.00
51452;BME280;37521;52.020;-1.740;2024-03-23T11:36:44;99432.09;;;1.26;100.00
51452;BME280;37521;52.020;-1.740;2024-03-23T11:39:14;99425.06;;;1.34;100.00
51452;BME280;37521;52.020;-1.740;2024-03-23T11:41:47;99421.03;;;1.62;100.00
51452;BME280;37521;52.020;-1.740;2024-03-23T11:44:22;99424.66;;;1.97;100.00
51452;BME280;37521;52.020;-1.740;2024-03-23T11:46:50;99421.50;;;2.23;100.00
51452;BME280;37521;52.020;-1.740;2024-03-23T11:49:21;99423.00;;;2.33;100.00
51452;BME280;37521;52.020;-1.740;2024-03-23T11:51:49;99414.50;;;2.25;100.00
51452;BME280;37521;52.020;-1.740;2024-03-23T11:54:19;99418.38;;;2.07;100.00
51452;BME280;37521;52.020;-1.740;2024-03-23T11:57:07;99408.28;;;1.92;100.00
51452;BME280;37521;52.020;-1.740;2024-03-23T11:59:37;99407.50;;;1.87;100.00
51452;BME280;37521;52.020;-1.740;2024-03-23T12:02:07;99404.03;;;1.88;100.00
51452;BME280;37521;52.020;-1.740;2024-03-23T12:04:37;99403.97;;;1.91;100.00
51452;BME280;37521;52.020;-1.740;2024-03-23T12:07:13;99395.25;;;1.92;100.00
51452;BME280;37521;52.020;-1.740;2024-03-23T12:09:41;99395.34;;;1.89;100.00
51452;BME280;37521;52.020;-1.740;2024-03-23T12:12:14;99402.06;;;1.99;100.00
51452;BME280;37521;52.020;-1.740;2024-03-23T12:14:44;99392.34;;;2.07;100.00
51452;BME280;37521;52.020;-1.740;2024-03-23T12:17:12;99386.94;;;2.16;100.00
51452;BME280;37521;52.020;-1.740;2024-03-23T12:19:41;99386.72;;;2.26;100.00
51452;BME280;37521;52.020;-1.740;2024-03-23T12:22:07;99372.19;;;2.54;100.00
51452;BME280;37521;52.020;-1.740;2024-03-23T12:24:35;99378.28;;;3.21;100.00
51452;BME280;37521;52.020;-1.740;2024-03-23T12:27:02;99371.09;;;3.92;100.00
51452;BME280;37521;52.020;-1.740;2024-03-23T12:29:30;99367.31;;;4.30;100.00
51452;BME280;37521;52.020;-1.740;2024-03-23T12:32:01;99356.94;;;4.81;100.00
51452;BME280;37521;52.020;-1.740;2024-03-23T12:34:29;99348.84;;;5.14;100.00
51452;BME280;37521;52.020;-1.740;2024-03-23T12:36:56;99346.72;;;5.25;100.00
51452;BME280;37521;52.020;-1.740;2024-03-23T12:39:25;99338.22;;;5.43;100.00
51452;BME280;37521;52.020;-1.740;2024-03-23T12:41:51;99342.22;;;5.77;100.00
51452;BME280;37521;52.020;-1.740;2024-03-23T12:44:19;99336.41;;;5.92;100.00
51452;BME280;37521;52.020;-1.740;2024-03-23T12:46:47;99333.50;;;6.00;100.00
51452;BME280;37521;52.020;-1.740;2024-03-23T12:49:16;99345.75;;;5.99;100.00
51452;BME280;37521;52.020;-1.740;2024-03-23T12:51:49;99344.13;;;6.19;100.00
51452;BME280;37521;52.020;-1.740;2024-03-23T12:54:20;99330.22;;;6.39;100.00
51452;BME280;37521;52.020;-1.740;2024-03-23T12:56:47;99332.50;;;6.68;100.00
51452;BME280;37521;52.020;-1.740;2024-03-23T12:59:15;99328.91;;;6.50;100.00
51452;BME280;37521;52.020;-1.740;2024-03-23T13:01:42;99320.22;;;6.48;100.00
51452;BME280;37521;52.020;-1.740;2024-03-23T13:04:11;99309.47;;;6.54;100.00
51452;BME280;37521;52.020;-1.740;2024-03-23T13:06:38;99313.94;;;6.52;100.00
51452;BME280;37521;52.020;-1.740;2024-03-23T13:09:07;99312.25;;;6.72;100.00
51452;BME280;37521;52.020;-1.740;2024-03-23T13:11:34;99306.50;;;6.84;100.00
51452;BME280;37521;52.020;-1.740;2024-03-23T13:14:01;99300.00;;;6.30;100.00
51452;BME280;37521;52.020;-1.740;2024-03-23T13:16:30;99297.19;;;6.13;100.00
51452;BME280;37521;52.020;-1.740;2024-03-23T13:18:58;99294.09;;;6.67;100.00
51452;BME280;37521;52.020;-1.740;2024-03-23T13:21:25;99298.22;;;6.93;100.00
51452;BME280;37521;52.020;-1.740;2024-03-23T13:23:53;99288.50;;;6.54;100.00
51452;BME280;37521;52.020;-1.740;2024-03-23T13:26:21;99284.53;;;6.02;100.00
51452;BME280;37521;52.020;-1.740;2024-03-23T13:28:48;99290.19;;;5.44;100.00
51452;BME280;37521;52.020;-1.740;2024-03-23T13:31:15;99306.81;;;4.93;100.00
51452;BME280;37521;52.020;-1.740;2024-03-23T13:33:43;99308.06;;;4.57;100.00
51452;BME280;37521;52.020;-1.740;2024-03-23T13:36:10;99316.00;;;4.27;100.00
51452;BME280;37521;52.020;-1.740;2024-03-23T13:38:37;99313.16;;;4.07;100.00
51452;BME280;37521;52.020;-1.740;2024-03-23T13:41:05;99318.47;;;4.04;100.00
51452;BME280;37521;52.020;-1.740;2024-03-23T13:43:33;99313.44;;;4.52;100.00
51452;BME280;37521;52.020;-1.740;2024-03-23T13:46:00;99321.44;;;5.24;100.00
51452;BME280;37521;52.020;-1.740;2024-03-23T13:48:27;99316.34;;;5.68;100.00